Little Indian, Illinois
Current Conditions -  °F | °C
As of 3:55 PM on Friday 28 Nov 2014 (Local Time) from KIJX Reporting Station
Clear Clear  
Wind Chill: 34°   Ceiling: Unl
Heat Index: 40°   Visibility: 10mi
Dew Point: 34°   Wind: 10mph
Humidity: 78%   Direction: 130°SE
Pressure: 29.93"   Gusts: NA
Location:  39.9268°N, 90.2187°W
Report Text: KIJX 282155Z AUTO 13009KT 10SM CLR 05/01 A2993 RMK AO2 T00470011
Loading
Personal Weather Stations






























Interactive Weather Map New forecast layout! Learn more

10-Day Weather Forecast

Advertisements
Track Severe Weather on mobile